sensor_id;sensor_type;location;lat;lon;timestamp;P1;durP1;ratioP1;P2;durP2;ratioP2
60494;SDS011;46342;49.046;11.920;2024-03-02T00:00:20;23.90;;;12.13;;
60494;SDS011;46342;49.046;11.920;2024-03-02T00:02:47;26.45;;;12.80;;
60494;SDS011;46342;49.046;11.920;2024-03-02T00:05:18;24.08;;;11.73;;
60494;SDS011;46342;49.046;11.920;2024-03-02T00:07:47;27.20;;;12.55;;
60494;SDS011;46342;49.046;11.920;2024-03-02T00:10:19;21.10;;;10.57;;
60494;SDS011;46342;49.046;11.920;2024-03-02T00:12:50;24.45;;;11.18;;
60494;SDS011;46342;49.046;11.920;2024-03-02T00:17:56;22.75;;;11.57;;
60494;SDS011;46342;49.046;11.920;2024-03-02T00:20:23;22.88;;;11.30;;
60494;SDS011;46342;49.046;11.920;2024-03-02T00:22:52;26.40;;;11.85;;
60494;SDS011;46342;49.046;11.920;2024-03-02T00:25:38;26.30;;;11.23;;
60494;SDS011;46342;49.046;11.920;2024-03-02T00:28:19;25.90;;;11.85;;
60494;SDS011;46342;49.046;11.920;2024-03-02T00:30:58;24.48;;;11.77;;
60494;SDS011;46342;49.046;11.920;2024-03-02T00:33:35;26.83;;;12.77;;
60494;SDS011;46342;49.046;11.920;2024-03-02T00:36:06;21.05;;;10.43;;
60494;SDS011;46342;49.046;11.920;2024-03-02T00:38:33;30.08;;;12.15;;
60494;SDS011;46342;49.046;11.920;2024-03-02T00:41:05;28.88;;;12.00;;
60494;SDS011;46342;49.046;11.920;2024-03-02T00:46:11;26.25;;;11.60;;
60494;SDS011;46342;49.046;11.920;2024-03-02T00:48:38;23.63;;;12.07;;
60494;SDS011;46342;49.046;11.920;2024-03-02T00:51:12;26.35;;;11.82;;
60494;SDS011;46342;49.046;11.920;2024-03-02T00:53:38;24.90;;;11.38;;
60494;SDS011;46342;49.046;11.920;2024-03-02T00:56:03;24.60;;;11.55;;
60494;SDS011;46342;49.046;11.920;2024-03-02T00:58:33;24.35;;;10.93;;
60494;SDS011;46342;49.046;11.920;2024-03-02T01:00:59;23.67;;;11.15;;
60494;SDS011;46342;49.046;11.920;2024-03-02T01:03:25;24.13;;;11.95;;
60494;SDS011;46342;49.046;11.920;2024-03-02T01:05:51;25.38;;;11.65;;
60494;SDS011;46342;49.046;11.920;2024-03-02T01:08:16;22.58;;;11.30;;
60494;SDS011;46342;49.046;11.920;2024-03-02T01:10:42;26.23;;;11.30;;
60494;SDS011;46342;49.046;11.920;2024-03-02T01:13:08;22.98;;;11.07;;
60494;SDS011;46342;49.046;11.920;2024-03-02T01:15:34;26.60;;;12.75;;
60494;SDS011;46342;49.046;11.920;2024-03-02T01:17:59;22.02;;;10.20;;
60494;SDS011;46342;49.046;11.920;2024-03-02T01:20:25;22.48;;;11.55;;
60494;SDS011;46342;49.046;11.920;2024-03-02T01:22:51;25.00;;;12.25;;
60494;SDS011;46342;49.046;11.920;2024-03-02T01:25:17;22.67;;;11.23;;
60494;SDS011;46342;49.046;11.920;2024-03-02T01:27:42;21.90;;;10.90;;
60494;SDS011;46342;49.046;11.920;2024-03-02T01:30:08;19.88;;;9.82;;
60494;SDS011;46342;49.046;11.920;2024-03-02T01:32:34;23.80;;;10.38;;
60494;SDS011;46342;49.046;11.920;2024-03-02T01:34:59;21.45;;;10.60;;
60494;SDS011;46342;49.046;11.920;2024-03-02T01:37:25;19.10;;;9.50;;
60494;SDS011;46342;49.046;11.920;2024-03-02T01:39:50;18.92;;;8.63;;
60494;SDS011;46342;49.046;11.920;2024-03-02T01:42:16;17.10;;;8.82;;
60494;SDS011;46342;49.046;11.920;2024-03-02T01:44:41;19.50;;;9.55;;
60494;SDS011;46342;49.046;11.920;2024-03-02T01:47:07;17.33;;;9.90;;
60494;SDS011;46342;49.046;11.920;2024-03-02T01:49:33;16.10;;;9.10;;
60494;SDS011;46342;49.046;11.920;2024-03-02T01:51:59;18.52;;;9.65;;
60494;SDS011;46342;49.046;11.920;2024-03-02T01:54:25;18.25;;;10.00;;
60494;SDS011;46342;49.046;11.920;2024-03-02T01:56:50;17.85;;;9.02;;
60494;SDS011;46342;49.046;11.920;2024-03-02T01:59:16;21.98;;;9.95;;
60494;SDS011;46342;49.046;11.920;2024-03-02T02:01:42;17.70;;;9.95;;
60494;SDS011;46342;49.046;11.920;2024-03-02T02:04:07;16.60;;;9.25;;
60494;SDS011;46342;49.046;11.920;2024-03-02T02:06:33;17.55;;;9.02;;
60494;SDS011;46342;49.046;11.920;2024-03-02T02:08:58;18.27;;;9.70;;
60494;SDS011;46342;49.046;11.920;2024-03-02T02:11:24;17.67;;;9.38;;
60494;SDS011;46342;49.046;11.920;2024-03-02T02:13:50;16.42;;;9.27;;
60494;SDS011;46342;49.046;11.920;2024-03-02T02:16:15;16.90;;;9.93;;
60494;SDS011;46342;49.046;11.920;2024-03-02T02:18:41;18.95;;;9.43;;
60494;SDS011;46342;49.046;11.920;2024-03-02T02:21:07;15.35;;;9.27;;
60494;SDS011;46342;49.046;11.920;2024-03-02T02:23:32;17.40;;;8.55;;
60494;SDS011;46342;49.046;11.920;2024-03-02T02:25:58;18.77;;;9.75;;
60494;SDS011;46342;49.046;11.920;2024-03-02T02:28:24;15.57;;;8.80;;
60494;SDS011;46342;49.046;11.920;2024-03-02T02:30:49;16.83;;;8.95;;
60494;SDS011;46342;49.046;11.920;2024-03-02T02:33:15;16.02;;;9.25;;
60494;SDS011;46342;49.046;11.920;2024-03-02T02:35:40;17.58;;;9.57;;
60494;SDS011;46342;49.046;11.920;2024-03-02T02:38:06;12.23;;;7.38;;
60494;SDS011;46342;49.046;11.920;2024-03-02T02:40:32;17.38;;;7.50;;
60494;SDS011;46342;49.046;11.920;2024-03-02T02:42:58;14.93;;;8.13;;
60494;SDS011;46342;49.046;11.920;2024-03-02T02:45:26;15.38;;;6.95;;
60494;SDS011;46342;49.046;11.920;2024-03-02T02:47:52;16.00;;;8.52;;
60494;SDS011;46342;49.046;11.920;2024-03-02T02:50:17;14.27;;;8.20;;
60494;SDS011;46342;49.046;11.920;2024-03-02T02:52:43;14.02;;;8.35;;
60494;SDS011;46342;49.046;11.920;2024-03-02T02:55:12;12.85;;;7.65;;
60494;SDS011;46342;49.046;11.920;2024-03-02T02:57:39;13.98;;;7.18;;
60494;SDS011;46342;49.046;11.920;2024-03-02T03:00:10;12.13;;;6.70;;
60494;SDS011;46342;49.046;11.920;2024-03-02T03:02:41;11.68;;;6.93;;
60494;SDS011;46342;49.046;11.920;2024-03-02T03:05:07;10.38;;;6.75;;
60494;SDS011;46342;49.046;11.920;2024-03-02T03:07:39;10.75;;;6.40;;
60494;SDS011;46342;49.046;11.920;2024-03-02T03:10:09;11.77;;;6.63;;
60494;SDS011;46342;49.046;11.920;2024-03-02T03:12:36;10.00;;;6.20;;
60494;SDS011;46342;49.046;11.920;2024-03-02T03:15:02;11.43;;;6.93;;
60494;SDS011;46342;49.046;11.920;2024-03-02T03:17:29;10.25;;;6.20;;
60494;SDS011;46342;49.046;11.920;2024-03-02T03:19:55;11.25;;;6.05;;
60494;SDS011;46342;49.046;11.920;2024-03-02T03:22:21;9.90;;;6.05;;
60494;SDS011;46342;49.046;11.920;2024-03-02T03:24:46;10.25;;;5.45;;
60494;SDS011;46342;49.046;11.920;2024-03-02T03:27:12;10.70;;;6.65;;
60494;SDS011;46342;49.046;11.920;2024-03-02T03:29:37;12.15;;;6.70;;
60494;SDS011;46342;49.046;11.920;2024-03-02T03:32:03;11.63;;;6.53;;
60494;SDS011;46342;49.046;11.920;2024-03-02T03:34:32;9.82;;;5.88;;
60494;SDS011;46342;49.046;11.920;2024-03-02T03:39:23;11.18;;;5.20;;
60494;SDS011;46342;49.046;11.920;2024-03-02T03:41:49;9.45;;;5.05;;
60494;SDS011;46342;49.046;11.920;2024-03-02T03:44:14;10.13;;;6.30;;
60494;SDS011;46342;49.046;11.920;2024-03-02T03:46:40;10.43;;;6.10;;
60494;SDS011;46342;49.046;11.920;2024-03-02T03:49:05;10.50;;;6.35;;
60494;SDS011;46342;49.046;11.920;2024-03-02T03:51:31;9.15;;;5.47;;
60494;SDS011;46342;49.046;11.920;2024-03-02T03:53:56;8.30;;;5.53;;
60494;SDS011;46342;49.046;11.920;2024-03-02T03:56:22;7.90;;;5.43;;
60494;SDS011;46342;49.046;11.920;2024-03-02T03:58:47;9.40;;;5.95;;
60494;SDS011;46342;49.046;11.920;2024-03-02T04:01:13;11.35;;;6.38;;
60494;SDS011;46342;49.046;11.920;2024-03-02T04:03:39;9.98;;;6.10;;
60494;SDS011;46342;49.046;11.920;2024-03-02T04:06:04;10.70;;;6.55;;
60494;SDS011;46342;49.046;11.920;2024-03-02T04:08:30;9.75;;;6.30;;
60494;SDS011;46342;49.046;11.920;2024-03-02T04:10:55;11.13;;;6.63;;
60494;SDS011;46342;49.046;11.920;2024-03-02T04:13:21;10.20;;;6.35;;
60494;SDS011;46342;49.046;11.920;2024-03-02T04:15:47;7.15;;;4.95;;
60494;SDS011;46342;49.046;11.920;2024-03-02T04:18:12;9.50;;;5.15;;
60494;SDS011;46342;49.046;11.920;2024-03-02T04:20:38;9.75;;;6.32;;
60494;SDS011;46342;49.046;11.920;2024-03-02T04:23:03;10.30;;;6.70;;
60494;SDS011;46342;49.046;11.920;2024-03-02T04:25:29;10.13;;;6.10;;
60494;SDS011;46342;49.046;11.920;2024-03-02T04:27:55;9.23;;;6.10;;
60494;SDS011;46342;49.046;11.920;2024-03-02T04:30:20;9.63;;;5.63;;
60494;SDS011;46342;49.046;11.920;2024-03-02T04:32:46;10.63;;;6.28;;
60494;SDS011;46342;49.046;11.920;2024-03-02T04:35:12;7.88;;;5.53;;
60494;SDS011;46342;49.046;11.920;2024-03-02T04:37:38;9.80;;;6.18;;
60494;SDS011;46342;49.046;11.920;2024-03-02T04:40:04;11.15;;;6.65;;
60494;SDS011;46342;49.046;11.920;2024-03-02T04:42:33;11.73;;;6.80;;
60494;SDS011;46342;49.046;11.920;2024-03-02T04:44:59;8.85;;;5.25;;
60494;SDS011;46342;49.046;11.920;2024-03-02T04:47:25;11.63;;;6.90;;
60494;SDS011;46342;49.046;11.920;2024-03-02T04:49:51;10.57;;;6.68;;
60494;SDS011;46342;49.046;11.920;2024-03-02T04:52:16;10.90;;;6.82;;
60494;SDS011;46342;49.046;11.920;2024-03-02T04:54:42;12.27;;;7.45;;
60494;SDS011;46342;49.046;11.920;2024-03-02T04:57:26;11.25;;;6.85;;
60494;SDS011;46342;49.046;11.920;2024-03-02T04:59:52;9.35;;;6.30;;
60494;SDS011;46342;49.046;11.920;2024-03-02T05:02:17;14.30;;;8.63;;
60494;SDS011;46342;49.046;11.920;2024-03-02T05:04:43;12.82;;;7.88;;
60494;SDS011;46342;49.046;11.920;2024-03-02T05:07:09;13.30;;;7.32;;
60494;SDS011;46342;49.046;11.920;2024-03-02T05:09:35;11.50;;;6.55;;
60494;SDS011;46342;49.046;11.920;2024-03-02T05:12:00;12.82;;;7.53;;
60494;SDS011;46342;49.046;11.920;2024-03-02T05:14:45;15.90;;;7.63;;
60494;SDS011;46342;49.046;11.920;2024-03-02T05:17:11;10.30;;;6.70;;
60494;SDS011;46342;49.046;11.920;2024-03-02T05:19:36;14.35;;;8.35;;
60494;SDS011;46342;49.046;11.920;2024-03-02T05:22:03;10.20;;;6.28;;
60494;SDS011;46342;49.046;11.920;2024-03-02T05:24:28;10.52;;;6.03;;
60494;SDS011;46342;49.046;11.920;2024-03-02T05:26:54;9.50;;;5.70;;
60494;SDS011;46342;49.046;11.920;2024-03-02T05:29:20;11.38;;;6.50;;
60494;SDS011;46342;49.046;11.920;2024-03-02T05:31:46;11.40;;;6.38;;
60494;SDS011;46342;49.046;11.920;2024-03-02T05:34:11;10.82;;;6.07;;
60494;SDS011;46342;49.046;11.920;2024-03-02T05:36:37;10.80;;;6.38;;
60494;SDS011;46342;49.046;11.920;2024-03-02T05:39:04;12.52;;;6.97;;
60494;SDS011;46342;49.046;11.920;2024-03-02T05:41:33;10.82;;;6.05;;
60494;SDS011;46342;49.046;11.920;2024-03-02T05:44:00;12.70;;;6.88;;
60494;SDS011;46342;49.046;11.920;2024-03-02T05:46:26;7.22;;;5.03;;
60494;SDS011;46342;49.046;11.920;2024-03-02T05:48:52;10.15;;;6.43;;
60494;SDS011;46342;49.046;11.920;2024-03-02T05:51:17;9.85;;;6.65;;
60494;SDS011;46342;49.046;11.920;2024-03-02T05:53:43;10.73;;;6.60;;
60494;SDS011;46342;49.046;11.920;2024-03-02T05:56:09;9.93;;;6.32;;
60494;SDS011;46342;49.046;11.920;2024-03-02T05:58:34;7.03;;;5.10;;
60494;SDS011;46342;49.046;11.920;2024-03-02T06:01:03;10.93;;;6.13;;
60494;SDS011;46342;49.046;11.920;2024-03-02T06:03:29;10.90;;;6.60;;
60494;SDS011;46342;49.046;11.920;2024-03-02T06:05:55;11.18;;;6.75;;
60494;SDS011;46342;49.046;11.920;2024-03-02T06:08:21;11.68;;;6.57;;
60494;SDS011;46342;49.046;11.920;2024-03-02T06:10:46;13.25;;;6.88;;
60494;SDS011;46342;49.046;11.920;2024-03-02T06:13:12;12.43;;;7.40;;
60494;SDS011;46342;49.046;11.920;2024-03-02T06:15:37;11.45;;;7.20;;
60494;SDS011;46342;49.046;11.920;2024-03-02T06:18:03;9.68;;;6.18;;
60494;SDS011;46342;49.046;11.920;2024-03-02T06:20:29;8.50;;;5.30;;
60494;SDS011;46342;49.046;11.920;2024-03-02T06:22:57;11.50;;;6.50;;
60494;SDS011;46342;49.046;11.920;2024-03-02T06:25:23;11.55;;;6.97;;
60494;SDS011;46342;49.046;11.920;2024-03-02T06:27:48;12.15;;;6.53;;
60494;SDS011;46342;49.046;11.920;2024-03-02T06:30:14;8.75;;;6.45;;
60494;SDS011;46342;49.046;11.920;2024-03-02T06:32:39;13.25;;;6.40;;
60494;SDS011;46342;49.046;11.920;2024-03-02T06:35:05;11.50;;;6.30;;
60494;SDS011;46342;49.046;11.920;2024-03-02T06:37:33;9.55;;;6.15;;
60494;SDS011;46342;49.046;11.920;2024-03-02T06:39:59;10.02;;;6.47;;
60494;SDS011;46342;49.046;11.920;2024-03-02T06:42:24;15.60;;;7.18;;
60494;SDS011;46342;49.046;11.920;2024-03-02T06:44:50;11.45;;;6.68;;
60494;SDS011;46342;49.046;11.920;2024-03-02T06:47:15;11.07;;;7.22;;
60494;SDS011;46342;49.046;11.920;2024-03-02T06:49:41;10.38;;;6.43;;
60494;SDS011;46342;49.046;11.920;2024-03-02T06:52:07;10.32;;;6.43;;
60494;SDS011;46342;49.046;11.920;2024-03-02T06:54:33;8.63;;;5.70;;
60494;SDS011;46342;49.046;11.920;2024-03-02T06:56:59;13.30;;;6.72;;
60494;SDS011;46342;49.046;11.920;2024-03-02T06:59:25;11.52;;;6.63;;
60494;SDS011;46342;49.046;11.920;2024-03-02T07:01:51;11.65;;;6.82;;
60494;SDS011;46342;49.046;11.920;2024-03-02T07:04:16;11.70;;;6.50;;
60494;SDS011;46342;49.046;11.920;2024-03-02T07:06:42;11.02;;;6.60;;
60494;SDS011;46342;49.046;11.920;2024-03-02T07:09:07;9.27;;;5.53;;
60494;SDS011;46342;49.046;11.920;2024-03-02T07:11:35;8.45;;;5.78;;
60494;SDS011;46342;49.046;11.920;2024-03-02T07:14:01;8.63;;;5.63;;
60494;SDS011;46342;49.046;11.920;2024-03-02T07:16:27;9.45;;;5.88;;
60494;SDS011;46342;49.046;11.920;2024-03-02T07:18:58;10.50;;;6.35;;
60494;SDS011;46342;49.046;11.920;2024-03-02T07:21:24;14.38;;;7.63;;
60494;SDS011;46342;49.046;11.920;2024-03-02T07:23:49;10.63;;;7.72;;
60494;SDS011;46342;49.046;11.920;2024-03-02T07:26:15;10.38;;;7.43;;
60494;SDS011;46342;49.046;11.920;2024-03-02T07:28:43;9.50;;;6.32;;
60494;SDS011;46342;49.046;11.920;2024-03-02T07:31:10;12.13;;;8.77;;
60494;SDS011;46342;49.046;11.920;2024-03-02T07:33:36;10.10;;;6.63;;
60494;SDS011;46342;49.046;11.920;2024-03-02T07:36:01;10.75;;;6.85;;
60494;SDS011;46342;49.046;11.920;2024-03-02T07:38:30;11.27;;;7.00;;
60494;SDS011;46342;49.046;11.920;2024-03-02T07:40:58;11.15;;;6.32;;
60494;SDS011;46342;49.046;11.920;2024-03-02T07:43:25;16.50;;;7.15;;
60494;SDS011;46342;49.046;11.920;2024-03-02T07:45:51;12.73;;;7.68;;
60494;SDS011;46342;49.046;11.920;2024-03-02T07:48:16;12.02;;;6.72;;
60494;SDS011;46342;49.046;11.920;2024-03-02T07:50:42;9.55;;;6.20;;
60494;SDS011;46342;49.046;11.920;2024-03-02T07:53:08;12.68;;;6.28;;
60494;SDS011;46342;49.046;11.920;2024-03-02T07:55:34;13.57;;;6.43;;
60494;SDS011;46342;49.046;11.920;2024-03-02T07:58:02;12.25;;;7.10;;
60494;SDS011;46342;49.046;11.920;2024-03-02T08:00:28;21.98;;;8.68;;
60494;SDS011;46342;49.046;11.920;2024-03-02T08:02:54;10.85;;;6.82;;
60494;SDS011;46342;49.046;11.920;2024-03-02T08:05:21;13.30;;;6.07;;
60494;SDS011;46342;49.046;11.920;2024-03-02T08:07:46;13.45;;;7.38;;
60494;SDS011;46342;49.046;11.920;2024-03-02T08:10:12;11.40;;;7.35;;
60494;SDS011;46342;49.046;11.920;2024-03-02T08:12:38;12.75;;;8.30;;
60494;SDS011;46342;49.046;11.920;2024-03-02T08:15:04;13.45;;;7.05;;
60494;SDS011;46342;49.046;11.920;2024-03-02T08:17:30;11.82;;;6.80;;
60494;SDS011;46342;49.046;11.920;2024-03-02T08:19:56;12.77;;;7.70;;
60494;SDS011;46342;49.046;11.920;2024-03-02T08:22:23;12.40;;;7.85;;
60494;SDS011;46342;49.046;11.920;2024-03-02T08:24:50;13.57;;;7.53;;
60494;SDS011;46342;49.046;11.920;2024-03-02T08:27:16;13.20;;;6.80;;
60494;SDS011;46342;49.046;11.920;2024-03-02T08:29:42;13.07;;;7.40;;
60494;SDS011;46342;49.046;11.920;2024-03-02T08:32:07;14.10;;;8.20;;
60494;SDS011;46342;49.046;11.920;2024-03-02T08:34:33;14.35;;;7.97;;
60494;SDS011;46342;49.046;11.920;2024-03-02T08:37:00;17.25;;;8.23;;
60494;SDS011;46342;49.046;11.920;2024-03-02T08:39:26;12.77;;;7.55;;
60494;SDS011;46342;49.046;11.920;2024-03-02T08:41:52;14.88;;;8.07;;
60494;SDS011;46342;49.046;11.920;2024-03-02T08:44:18;13.82;;;8.13;;
60494;SDS011;46342;49.046;11.920;2024-03-02T08:46:44;16.30;;;8.43;;
60494;SDS011;46342;49.046;11.920;2024-03-02T08:49:09;13.13;;;7.47;;
60494;SDS011;46342;49.046;11.920;2024-03-02T08:51:35;12.95;;;8.05;;
60494;SDS011;46342;49.046;11.920;2024-03-02T08:54:01;16.52;;;8.85;;
60494;SDS011;46342;49.046;11.920;2024-03-02T08:56:27;15.02;;;7.95;;
60494;SDS011;46342;49.046;11.920;2024-03-02T08:58:52;16.60;;;8.80;;
60494;SDS011;46342;49.046;11.920;2024-03-02T09:01:18;14.30;;;7.57;;
60494;SDS011;46342;49.046;11.920;2024-03-02T09:03:47;12.23;;;7.95;;
60494;SDS011;46342;49.046;11.920;2024-03-02T09:06:14;14.73;;;8.57;;
60494;SDS011;46342;49.046;11.920;2024-03-02T09:08:42;14.75;;;8.68;;
60494;SDS011;46342;49.046;11.920;2024-03-02T09:11:08;15.00;;;8.60;;
60494;SDS011;46342;49.046;11.920;2024-03-02T09:13:35;18.65;;;9.32;;
60494;SDS011;46342;49.046;11.920;2024-03-02T09:16:02;16.80;;;8.93;;
60494;SDS011;46342;49.046;11.920;2024-03-02T09:18:29;18.25;;;9.02;;
60494;SDS011;46342;49.046;11.920;2024-03-02T09:20:54;16.88;;;8.82;;
60494;SDS011;46342;49.046;11.920;2024-03-02T09:23:20;18.10;;;9.52;;
60494;SDS011;46342;49.046;11.920;2024-03-02T09:25:46;17.08;;;9.80;;
60494;SDS011;46342;49.046;11.920;2024-03-02T09:28:11;15.90;;;9.05;;
60494;SDS011;46342;49.046;11.920;2024-03-02T09:30:37;16.15;;;8.88;;
60494;SDS011;46342;49.046;11.920;2024-03-02T09:33:03;14.93;;;8.45;;
60494;SDS011;46342;49.046;11.920;2024-03-02T09:35:29;14.68;;;8.25;;
60494;SDS011;46342;49.046;11.920;2024-03-02T09:37:55;16.25;;;8.40;;
60494;SDS011;46342;49.046;11.920;2024-03-02T09:40:21;16.65;;;8.93;;
60494;SDS011;46342;49.046;11.920;2024-03-02T09:42:47;16.02;;;9.07;;
60494;SDS011;46342;49.046;11.920;2024-03-02T09:45:18;16.45;;;8.80;;
60494;SDS011;46342;49.046;11.920;2024-03-02T09:47:49;14.85;;;8.45;;
60494;SDS011;46342;49.046;11.920;2024-03-02T09:50:15;18.52;;;9.38;;
60494;SDS011;46342;49.046;11.920;2024-03-02T09:52:42;16.88;;;9.13;;
60494;SDS011;46342;49.046;11.920;2024-03-02T09:55:08;15.05;;;8.57;;
60494;SDS011;46342;49.046;11.920;2024-03-02T09:57:34;16.20;;;9.07;;
60494;SDS011;46342;49.046;11.920;2024-03-02T09:59:59;13.70;;;7.80;;
60494;SDS011;46342;49.046;11.920;2024-03-02T10:02:25;14.25;;;7.75;;
60494;SDS011;46342;49.046;11.920;2024-03-02T10:04:51;15.65;;;9.48;;
60494;SDS011;46342;49.046;11.920;2024-03-02T10:07:17;15.02;;;8.35;;
60494;SDS011;46342;49.046;11.920;2024-03-02T10:09:44;16.13;;;9.20;;
60494;SDS011;46342;49.046;11.920;2024-03-02T10:12:12;15.10;;;9.43;;
60494;SDS011;46342;49.046;11.920;2024-03-02T10:14:39;17.33;;;9.90;;
60494;SDS011;46342;49.046;11.920;2024-03-02T10:17:09;18.88;;;9.75;;
60494;SDS011;46342;49.046;11.920;2024-03-02T10:19:35;19.35;;;9.65;;
60494;SDS011;46342;49.046;11.920;2024-03-02T10:22:02;15.35;;;8.55;;
60494;SDS011;46342;49.046;11.920;2024-03-02T10:24:39;19.40;;;9.07;;
60494;SDS011;46342;49.046;11.920;2024-03-02T10:27:32;12.68;;;8.13;;
60494;SDS011;46342;49.046;11.920;2024-03-02T10:29:59;12.02;;;7.68;;
60494;SDS011;46342;49.046;11.920;2024-03-02T10:32:27;14.70;;;7.70;;
60494;SDS011;46342;49.046;11.920;2024-03-02T10:34:53;10.27;;;6.88;;
60494;SDS011;46342;49.046;11.920;2024-03-02T10:37:20;14.95;;;8.02;;
60494;SDS011;46342;49.046;11.920;2024-03-02T10:39:46;12.70;;;7.18;;
60494;SDS011;46342;49.046;11.920;2024-03-02T10:42:12;13.45;;;7.53;;
60494;SDS011;46342;49.046;11.920;2024-03-02T10:44:39;13.60;;;7.63;;
60494;SDS011;46342;49.046;11.920;2024-03-02T10:47:06;12.80;;;7.03;;
60494;SDS011;46342;49.046;11.920;2024-03-02T10:49:33;11.30;;;6.23;;
60494;SDS011;46342;49.046;11.920;2024-03-02T10:51:59;13.45;;;7.72;;
60494;SDS011;46342;49.046;11.920;2024-03-02T10:54:25;13.70;;;7.43;;
60494;SDS011;46342;49.046;11.920;2024-03-02T10:56:52;12.18;;;7.07;;
60494;SDS011;46342;49.046;11.920;2024-03-02T11:01:51;14.55;;;7.70;;
60494;SDS011;46342;49.046;11.920;2024-03-02T11:04:20;15.35;;;8.35;;
60494;SDS011;46342;49.046;11.920;2024-03-02T11:06:51;13.38;;;7.53;;
60494;SDS011;46342;49.046;11.920;2024-03-02T11:09:21;10.48;;;6.95;;
60494;SDS011;46342;49.046;11.920;2024-03-02T11:11:54;12.98;;;7.80;;
60494;SDS011;46342;49.046;11.920;2024-03-02T11:14:26;12.15;;;7.53;;
60494;SDS011;46342;49.046;11.920;2024-03-02T11:16:56;12.52;;;7.57;;
60494;SDS011;46342;49.046;11.920;2024-03-02T11:19:22;12.98;;;7.93;;
60494;SDS011;46342;49.046;11.920;2024-03-02T11:21:49;12.95;;;7.78;;
60494;SDS011;46342;49.046;11.920;2024-03-02T11:26:48;10.52;;;6.03;;
60494;SDS011;46342;49.046;11.920;2024-03-02T11:32:04;14.40;;;7.57;;
60494;SDS011;46342;49.046;11.920;2024-03-02T11:34:32;12.65;;;7.22;;
60494;SDS011;46342;49.046;11.920;2024-03-02T11:36:59;12.07;;;6.43;;
60494;SDS011;46342;49.046;11.920;2024-03-02T11:39:28;11.75;;;7.03;;
60494;SDS011;46342;49.046;11.920;2024-03-02T11:41:54;11.25;;;6.65;;
60494;SDS011;46342;49.046;11.920;2024-03-02T11:44:21;11.48;;;6.13;;
60494;SDS011;46342;49.046;11.920;2024-03-02T11:46:51;12.32;;;7.05;;
60494;SDS011;46342;49.046;11.920;2024-03-02T11:52:19;10.05;;;6.07;;
60494;SDS011;46342;49.046;11.920;2024-03-02T11:54:47;10.10;;;6.32;;
60494;SDS011;46342;49.046;11.920;2024-03-02T11:57:17;11.20;;;6.55;;
60494;SDS011;46342;49.046;11.920;2024-03-02T11:59:44;9.23;;;6.10;;
60494;SDS011;46342;49.046;11.920;2024-03-02T12:02:14;9.82;;;6.18;;
60494;SDS011;46342;49.046;11.920;2024-03-02T12:04:42;8.82;;;5.25;;
60494;SDS011;46342;49.046;11.920;2024-03-02T12:07:08;10.75;;;6.32;;
60494;SDS011;46342;49.046;11.920;2024-03-02T12:09:34;9.38;;;5.75;;
60494;SDS011;46342;49.046;11.920;2024-03-02T12:12:03;9.73;;;6.45;;
60494;SDS011;46342;49.046;11.920;2024-03-02T12:14:34;10.05;;;6.80;;
60494;SDS011;46342;49.046;11.920;2024-03-02T12:17:01;10.13;;;6.00;;
60494;SDS011;46342;49.046;11.920;2024-03-02T12:19:28;10.00;;;5.50;;
60494;SDS011;46342;49.046;11.920;2024-03-02T12:21:55;8.80;;;6.27;;
60494;SDS011;46342;49.046;11.920;2024-03-02T12:24:21;9.57;;;5.95;;
60494;SDS011;46342;49.046;11.920;2024-03-02T12:26:47;7.45;;;5.55;;
60494;SDS011;46342;49.046;11.920;2024-03-02T12:29:16;11.43;;;6.57;;
60494;SDS011;46342;49.046;11.920;2024-03-02T12:31:43;9.53;;;6.50;;
60494;SDS011;46342;49.046;11.920;2024-03-02T12:34:15;10.73;;;6.28;;
60494;SDS011;46342;49.046;11.920;2024-03-02T12:36:42;9.20;;;5.45;;
60494;SDS011;46342;49.046;11.920;2024-03-02T12:39:08;8.73;;;5.80;;
60494;SDS011;46342;49.046;11.920;2024-03-02T12:41:37;10.00;;;6.17;;
60494;SDS011;46342;49.046;11.920;2024-03-02T12:44:06;7.97;;;5.47;;
60494;SDS011;46342;49.046;11.920;2024-03-02T12:46:32;8.25;;;5.80;;
60494;SDS011;46342;49.046;11.920;2024-03-02T12:48:58;8.85;;;5.68;;
60494;SDS011;46342;49.046;11.920;2024-03-02T12:51:29;9.77;;;6.15;;
60494;SDS011;46342;49.046;11.920;2024-03-02T12:53:56;8.35;;;6.10;;
60494;SDS011;46342;49.046;11.920;2024-03-02T12:56:22;7.15;;;4.82;;
60494;SDS011;46342;49.046;11.920;2024-03-02T12:58:52;8.30;;;5.43;;
60494;SDS011;46342;49.046;11.920;2024-03-02T13:01:19;8.65;;;5.25;;
60494;SDS011;46342;49.046;11.920;2024-03-02T13:03:44;8.88;;;5.65;;
60494;SDS011;46342;49.046;11.920;2024-03-02T13:06:10;9.00;;;5.80;;
60494;SDS011;46342;49.046;11.920;2024-03-02T13:08:36;9.50;;;5.85;;
60494;SDS011;46342;49.046;11.920;2024-03-02T13:11:02;8.90;;;5.68;;
60494;SDS011;46342;49.046;11.920;2024-03-02T13:13:31;9.27;;;6.00;;
60494;SDS011;46342;49.046;11.920;2024-03-02T13:15:56;8.07;;;5.47;;
60494;SDS011;46342;49.046;11.920;2024-03-02T13:18:22;9.25;;;6.10;;
60494;SDS011;46342;49.046;11.920;2024-03-02T13:20:48;9.05;;;5.82;;
60494;SDS011;46342;49.046;11.920;2024-03-02T13:23:13;8.75;;;5.80;;
60494;SDS011;46342;49.046;11.920;2024-03-02T13:25:39;8.55;;;5.80;;
60494;SDS011;46342;49.046;11.920;2024-03-02T13:28:05;10.20;;;6.10;;
60494;SDS011;46342;49.046;11.920;2024-03-02T13:30:31;8.68;;;6.05;;
60494;SDS011;46342;49.046;11.920;2024-03-02T13:32:57;12.35;;;6.22;;
60494;SDS011;46342;49.046;11.920;2024-03-02T13:35:23;10.43;;;5.97;;
60494;SDS011;46342;49.046;11.920;2024-03-02T13:37:48;8.27;;;5.47;;
60494;SDS011;46342;49.046;11.920;2024-03-02T13:40:15;9.93;;;6.45;;
60494;SDS011;46342;49.046;11.920;2024-03-02T13:42:44;7.90;;;5.32;;
60494;SDS011;46342;49.046;11.920;2024-03-02T13:45:14;9.10;;;5.60;;
60494;SDS011;46342;49.046;11.920;2024-03-02T13:47:39;9.20;;;6.35;;
60494;SDS011;46342;49.046;11.920;2024-03-02T13:50:05;8.15;;;5.60;;
60494;SDS011;46342;49.046;11.920;2024-03-02T13:52:32;9.20;;;6.05;;
60494;SDS011;46342;49.046;11.920;2024-03-02T13:54:57;8.02;;;5.57;;
60494;SDS011;46342;49.046;11.920;2024-03-02T13:57:23;8.65;;;5.43;;
60494;SDS011;46342;49.046;11.920;2024-03-02T13:59:49;8.65;;;6.07;;
60494;SDS011;46342;49.046;11.920;2024-03-02T14:02:15;8.95;;;6.00;;
60494;SDS011;46342;49.046;11.920;2024-03-02T14:04:41;9.70;;;6.38;;
60494;SDS011;46342;49.046;11.920;2024-03-02T14:07:06;7.90;;;5.32;;
60494;SDS011;46342;49.046;11.920;2024-03-02T14:09:32;8.10;;;5.97;;
60494;SDS011;46342;49.046;11.920;2024-03-02T14:11:58;7.68;;;5.72;;
60494;SDS011;46342;49.046;11.920;2024-03-02T14:14:25;10.55;;;6.05;;
60494;SDS011;46342;49.046;11.920;2024-03-02T14:16:51;7.85;;;5.80;;
60494;SDS011;46342;49.046;11.920;2024-03-02T14:19:18;9.57;;;5.93;;
60494;SDS011;46342;49.046;11.920;2024-03-02T14:21:43;8.27;;;5.80;;
60494;SDS011;46342;49.046;11.920;2024-03-02T14:24:09;8.27;;;5.15;;
60494;SDS011;46342;49.046;11.920;2024-03-02T14:26:35;8.75;;;5.93;;
60494;SDS011;46342;49.046;11.920;2024-03-02T14:29:02;7.35;;;5.43;;
60494;SDS011;46342;49.046;11.920;2024-03-02T14:31:28;8.60;;;5.50;;
60494;SDS011;46342;49.046;11.920;2024-03-02T14:33:54;7.65;;;5.47;;
60494;SDS011;46342;49.046;11.920;2024-03-02T14:36:20;8.45;;;5.80;;
60494;SDS011;46342;49.046;11.920;2024-03-02T14:38:46;9.35;;;6.28;;